createdAt,value
2018-03-23T00:01:59.636Z,24.50
2018-03-23T00:04:29.404Z,24.73
2018-03-23T00:06:59.908Z,22.73
2018-03-23T00:09:30.473Z,23.57
2018-03-23T00:12:00.422Z,25.13
2018-03-23T00:14:30.294Z,23.57
2018-03-23T00:17:01.558Z,23.20
2018-03-23T00:19:31.463Z,26.57
2018-03-23T00:22:02.121Z,26.63
2018-03-23T00:24:32.027Z,25.17
2018-03-23T00:27:02.017Z,25.13
2018-03-23T00:29:32.815Z,22.87
2018-03-23T00:32:04.201Z,24.27
2018-03-23T00:34:35.104Z,25.87
2018-03-23T00:37:05.257Z,26.57
2018-03-23T00:39:35.340Z,24.53
2018-03-23T00:42:06.780Z,26.47
2018-03-23T00:44:37.013Z,25.87
2018-03-23T00:47:07.444Z,25.23
2018-03-23T00:49:37.492Z,24.53
2018-03-23T00:52:07.494Z,27.83
2018-03-23T00:54:38.848Z,27.40
2018-03-23T00:57:09.101Z,27.30
2018-03-23T00:59:40.820Z,27.87
2018-03-23T01:02:11.112Z,27.23
2018-03-23T01:04:41.416Z,27.97
2018-03-23T01:07:11.523Z,29.10
2018-03-23T01:09:41.558Z,29.00
2018-03-23T01:12:11.782Z,27.10
2018-03-23T01:14:41.923Z,26.97
2018-03-23T01:17:12.126Z,26.83
2018-03-23T01:19:42.142Z,28.33
2018-03-23T01:22:15.847Z,28.43
2018-03-23T01:24:46.061Z,27.33
2018-03-23T01:27:16.608Z,28.33
2018-03-23T01:29:46.773Z,30.77
2018-03-23T01:32:16.993Z,29.37
2018-03-23T01:34:47.213Z,29.37
2018-03-23T01:37:18.327Z,30.13
2018-03-23T01:39:48.660Z,29.50
2018-03-23T01:42:19.068Z,28.77
2018-03-23T01:44:50.032Z,30.33
2018-03-23T01:47:20.723Z,31.13
2018-03-23T01:49:51.171Z,29.47
2018-03-23T01:52:21.458Z,34.10
2018-03-23T01:54:52.541Z,33.83
2018-03-23T01:57:22.849Z,36.17
2018-03-23T01:59:53.436Z,35.83
2018-03-23T02:02:24.517Z,37.87
2018-03-23T02:04:54.773Z,37.07
2018-03-23T02:07:25.579Z,35.40
2018-03-23T02:09:56.820Z,35.83
2018-03-23T02:12:28.340Z,35.23
2018-03-23T02:14:58.937Z,36.27
2018-03-23T02:17:29.694Z,37.77
2018-03-23T02:20:00.328Z,36.53
2018-03-23T02:22:31.810Z,39.03
2018-03-23T02:25:03.340Z,36.00
2018-03-23T02:27:34.022Z,38.60
2018-03-23T02:30:04.767Z,39.23
2018-03-23T02:32:35.379Z,38.20
2018-03-23T02:35:06.779Z,38.50
2018-03-23T02:37:37.434Z,37.40
2018-03-23T02:40:07.846Z,36.83
2018-03-23T02:42:38.227Z,35.63
2018-03-23T02:45:08.426Z,33.27
2018-03-23T02:47:38.986Z,35.17
2018-03-23T02:50:10.348Z,34.40
2018-03-23T02:52:41.235Z,34.57
2018-03-23T02:55:11.680Z,32.13
2018-03-23T02:57:43.278Z,29.80
2018-03-23T03:00:13.776Z,34.23
2018-03-23T03:02:43.960Z,34.90
2018-03-23T03:05:14.336Z,35.53
2018-03-23T03:07:45.111Z,33.20
2018-03-23T03:10:16.214Z,32.57
2018-03-23T03:12:46.819Z,31.03
2018-03-23T03:15:17.537Z,31.97
2018-03-23T03:17:47.967Z,33.17
2018-03-23T03:20:18.850Z,32.47
2018-03-23T03:22:49.748Z,33.00
2018-03-23T03:25:20.531Z,33.23
2018-03-23T03:27:51.403Z,32.90
2018-03-23T03:30:22.720Z,32.10
2018-03-23T03:32:53.152Z,31.63
2018-03-23T03:35:24.468Z,34.27
2018-03-23T03:37:54.761Z,31.10
2018-03-23T03:40:25.325Z,31.60
2018-03-23T03:42:56.622Z,33.00
2018-03-23T03:45:27.962Z,34.27
2018-03-23T03:47:58.330Z,31.20
2018-03-23T03:50:28.574Z,33.60
2018-03-23T03:52:58.597Z,33.50
2018-03-23T03:55:28.470Z,32.00
2018-03-23T03:57:58.415Z,31.70
2018-03-23T04:00:29.005Z,32.83
2018-03-23T04:02:59.103Z,32.63
2018-03-23T04:05:29.165Z,31.90
2018-03-23T04:07:59.019Z,31.93
2018-03-23T04:10:29.865Z,32.20
2018-03-23T04:13:00.236Z,32.97
2018-03-23T04:15:30.602Z,31.97
2018-03-23T04:18:00.082Z,31.43
2018-03-23T04:20:30.337Z,32.87
2018-03-23T04:23:00.359Z,30.93
2018-03-23T04:25:30.079Z,31.63
2018-03-23T04:28:00.243Z,31.73
2018-03-23T04:30:30.415Z,32.70
2018-03-23T04:33:00.402Z,32.63
2018-03-23T04:35:31.635Z,31.33
2018-03-23T04:38:02.599Z,30.57
2018-03-23T04:40:32.693Z,31.20
2018-03-23T04:43:03.652Z,31.77
2018-03-23T04:45:33.863Z,32.03
2018-03-23T04:48:05.497Z,32.67
2018-03-23T04:50:36.158Z,32.07
2018-03-23T04:53:07.961Z,32.73
2018-03-23T04:55:39.117Z,32.20
2018-03-23T04:58:09.402Z,33.00
2018-03-23T05:00:41.262Z,32.83
2018-03-23T05:03:13.012Z,32.50
2018-03-23T05:05:43.203Z,32.30
2018-03-23T05:08:13.799Z,32.57
2018-03-23T05:10:44.653Z,32.03
2018-03-23T05:13:16.145Z,46.43
2018-03-23T05:15:46.667Z,37.07
2018-03-23T05:18:17.389Z,38.47
2018-03-23T05:20:48.704Z,34.23
2018-03-23T05:23:20.152Z,30.47
2018-03-23T05:25:50.764Z,31.37
2018-03-23T05:28:21.418Z,32.07
2018-03-23T05:30:51.820Z,31.57
2018-03-23T05:33:23.158Z,31.97
2018-03-23T05:35:53.690Z,30.60
2018-03-23T05:38:25.660Z,32.80
2018-03-23T05:40:56.306Z,32.10
2018-03-23T05:43:27.112Z,33.10
2018-03-23T05:45:57.327Z,31.10
2018-03-23T05:48:28.065Z,30.53
2018-03-23T05:50:58.649Z,30.33
2018-03-23T05:53:29.829Z,34.43
2018-03-23T05:56:00.078Z,34.40
2018-03-23T05:58:30.339Z,35.87
2018-03-23T06:01:01.428Z,30.90
2018-03-23T06:03:32.127Z,30.90
2018-03-23T06:06:03.373Z,30.77
2018-03-23T06:08:33.663Z,30.07
2018-03-23T06:11:05.207Z,30.90
2018-03-23T06:13:35.517Z,31.30
2018-03-23T06:16:06.271Z,30.87
2018-03-23T06:18:36.760Z,31.43
2018-03-23T06:21:07.109Z,31.63
2018-03-23T06:23:37.707Z,32.00
2018-03-23T06:26:07.994Z,29.97
2018-03-23T06:28:38.287Z,29.00
2018-03-23T06:31:08.440Z,30.33
2018-03-23T06:33:38.681Z,30.63
2018-03-23T06:36:08.861Z,30.00
2018-03-23T06:38:40.046Z,31.33
2018-03-23T06:41:11.083Z,31.50
2018-03-23T06:43:41.502Z,31.70
2018-03-23T06:46:11.862Z,30.30
2018-03-23T06:48:43.282Z,31.67
2018-03-23T06:51:19.705Z,32.83
2018-03-23T06:53:51.802Z,31.07
2018-03-23T06:56:21.983Z,31.33
2018-03-23T06:58:52.158Z,30.97
2018-03-23T07:01:22.226Z,31.03
2018-03-23T07:03:53.154Z,31.20
2018-03-23T07:06:23.335Z,32.07
2018-03-23T07:08:53.586Z,29.90
2018-03-23T07:11:23.609Z,29.97
2018-03-23T07:13:53.563Z,32.87
2018-03-23T07:16:23.668Z,30.70
2018-03-23T07:18:53.940Z,30.00
2018-03-23T07:21:23.854Z,30.10
2018-03-23T07:23:53.993Z,28.87
2018-03-23T07:26:23.882Z,31.73
2018-03-23T07:28:53.880Z,31.13
2018-03-23T07:31:23.629Z,30.23
2018-03-23T07:33:54.530Z,31.37
2018-03-23T07:36:24.568Z,29.10
2018-03-23T07:38:55.293Z,29.40
2018-03-23T07:41:25.374Z,28.33
2018-03-23T07:43:56.496Z,28.97
2018-03-23T07:46:27.434Z,27.20
2018-03-23T07:49:00.020Z,27.43
2018-03-23T07:51:30.713Z,27.57
2018-03-23T07:54:01.101Z,25.83
2018-03-23T07:56:31.930Z,27.10
2018-03-23T07:59:01.946Z,27.07
2018-03-23T08:01:32.148Z,25.73
2018-03-23T08:04:02.158Z,26.17
2018-03-23T08:06:38.197Z,26.60
2018-03-23T08:09:08.478Z,28.07
2018-03-23T08:11:38.307Z,27.77
2018-03-23T08:14:08.120Z,28.17
2018-03-23T08:16:38.018Z,29.50
2018-03-23T08:19:08.014Z,28.43
2018-03-23T08:21:37.851Z,26.83
2018-03-23T08:24:07.729Z,28.33
2018-03-23T08:26:38.477Z,28.50
2018-03-23T08:29:08.559Z,28.20
2018-03-23T08:31:39.046Z,29.53
2018-03-23T08:34:13.205Z,28.50
2018-03-23T08:36:43.049Z,30.53
2018-03-23T08:39:12.780Z,28.53
2018-03-23T08:41:42.576Z,27.27
2018-03-23T08:44:13.352Z,23.80
2018-03-23T08:46:42.961Z,26.67
2018-03-23T08:49:12.649Z,28.80
2018-03-23T08:51:43.060Z,24.63
2018-03-23T08:54:12.991Z,25.93
2018-03-23T08:56:42.738Z,25.60
2018-03-23T08:59:12.572Z,24.77
2018-03-23T09:01:42.168Z,25.93
2018-03-23T09:04:11.872Z,25.03
2018-03-23T09:06:41.703Z,22.60
2018-03-23T09:09:11.380Z,22.47
2018-03-23T09:11:41.922Z,21.77
2018-03-23T09:14:11.672Z,21.97
2018-03-23T09:16:42.394Z,20.93
2018-03-23T09:19:12.313Z,20.77
2018-03-23T09:24:35.154Z,21.50
2018-03-23T09:27:04.926Z,20.67
2018-03-23T09:29:34.644Z,22.33
2018-03-23T09:32:04.345Z,22.57
2018-03-23T09:34:34.092Z,23.20
2018-03-23T09:37:03.713Z,19.90
2018-03-23T09:39:33.341Z,20.03
2018-03-23T09:42:03.755Z,17.53
2018-03-23T09:44:33.657Z,19.27
2018-03-23T09:47:04.132Z,19.97
2018-03-23T09:49:33.688Z,19.03
2018-03-23T09:52:03.469Z,19.27
2018-03-23T09:54:40.110Z,18.23
2018-03-23T09:57:10.543Z,16.03
2018-03-23T09:59:40.112Z,16.70
2018-03-23T10:02:09.830Z,16.67
2018-03-23T10:04:50.827Z,15.83
2018-03-23T10:07:20.540Z,16.63
2018-03-23T10:09:50.187Z,16.63
2018-03-23T10:12:19.840Z,15.57
2018-03-23T10:15:02.910Z,13.97
2018-03-23T10:17:33.349Z,13.43
2018-03-23T10:20:03.423Z,10.40
2018-03-23T10:22:33.070Z,12.70
2018-03-23T10:25:05.888Z,12.80
2018-03-23T10:27:35.522Z,12.27
2018-03-23T10:30:05.269Z,12.40
2018-03-23T10:32:44.826Z,13.10
2018-03-23T10:35:21.218Z,13.73
2018-03-23T10:37:51.681Z,13.27
2018-03-23T10:40:22.259Z,12.33
2018-03-23T10:42:52.174Z,13.57
2018-03-23T10:45:21.799Z,12.20
2018-03-23T10:47:52.262Z,12.30
2018-03-23T10:50:22.349Z,12.27
2018-03-23T10:52:51.984Z,13.00
2018-03-23T10:57:57.714Z,12.10
2018-03-23T11:00:31.668Z,10.90
2018-03-23T11:03:02.022Z,10.70
2018-03-23T11:05:32.378Z,10.20
2018-03-23T11:10:40.851Z,10.13
2018-03-23T11:13:10.329Z,10.13
2018-03-23T11:15:39.982Z,11.03
2018-03-23T11:18:10.288Z,11.33
2018-03-23T11:22:16.932Z,10.43
2018-03-23T11:24:47.077Z,11.00
2018-03-23T11:27:19.585Z,10.40
2018-03-23T11:29:50.117Z,10.10
2018-03-23T11:32:20.672Z,11.13
2018-03-23T11:34:50.380Z,14.13
2018-03-23T11:37:29.640Z,10.43
2018-03-23T11:39:59.535Z,10.97
2018-03-23T11:42:29.260Z,11.13
2018-03-23T11:44:59.071Z,10.13
2018-03-23T11:47:28.699Z,10.17
2018-03-23T11:49:58.383Z,9.37
2018-03-23T11:52:28.102Z,9.00
2018-03-23T11:54:57.795Z,9.27
2018-03-23T11:57:27.524Z,9.60
2018-03-23T11:59:57.314Z,9.20
2018-03-23T12:02:26.931Z,9.50
2018-03-23T12:04:56.785Z,9.60
2018-03-23T12:07:28.583Z,9.83
2018-03-23T12:09:59.135Z,9.93
2018-03-23T12:12:28.858Z,9.60
2018-03-23T12:14:58.565Z,11.30
2018-03-23T12:17:28.540Z,12.33
2018-03-23T12:19:58.364Z,10.27
2018-03-23T12:22:28.096Z,9.13
2018-03-23T12:24:57.834Z,9.33
2018-03-23T12:27:27.636Z,9.80
2018-03-23T12:29:58.137Z,10.10
2018-03-23T12:32:27.872Z,9.73
2018-03-23T12:34:58.322Z,10.63
2018-03-23T12:37:28.689Z,12.50
2018-03-23T12:39:59.129Z,13.63
2018-03-23T12:42:28.886Z,8.73
2018-03-23T12:45:00.134Z,9.97
2018-03-23T12:47:29.912Z,9.57
2018-03-23T12:49:59.602Z,10.93
2018-03-23T12:52:30.010Z,10.20
2018-03-23T12:54:59.624Z,10.90
2018-03-23T12:57:30.372Z,11.47
2018-03-23T13:00:00.856Z,11.83
2018-03-23T13:02:33.717Z,12.23
2018-03-23T13:05:03.428Z,16.57
2018-03-23T13:07:33.906Z,15.80
2018-03-23T13:10:03.694Z,14.00
2018-03-23T13:12:33.641Z,14.97
2018-03-23T13:15:03.377Z,14.90
2018-03-23T13:17:36.008Z,14.53
2018-03-23T13:20:05.699Z,15.63
2018-03-23T13:22:35.306Z,21.97
2018-03-23T13:25:05.012Z,18.70
2018-03-23T13:27:34.791Z,27.97
2018-03-23T13:30:04.706Z,14.90
2018-03-23T13:32:34.407Z,12.70
2018-03-23T13:35:05.223Z,17.33
2018-03-23T13:37:36.813Z,10.13
2018-03-23T13:40:06.734Z,10.47
2018-03-23T13:42:36.391Z,12.00
2018-03-23T13:45:12.400Z,10.80
2018-03-23T13:47:42.385Z,10.43
2018-03-23T13:50:12.254Z,12.13
2018-03-23T13:52:42.662Z,28.70
2018-03-23T13:55:12.570Z,15.90
2018-03-23T13:57:42.289Z,10.60
2018-03-23T14:00:16.182Z,9.57
2018-03-23T14:02:46.958Z,17.07
2018-03-23T14:05:17.897Z,10.40
2018-03-23T14:07:49.225Z,10.53
2018-03-23T14:10:21.555Z,10.47
2018-03-23T14:12:53.121Z,9.73
2018-03-23T14:15:22.925Z,11.67
2018-03-23T14:17:52.739Z,11.87
2018-03-23T14:20:23.166Z,12.37
2018-03-23T14:22:56.739Z,16.77
2018-03-23T14:25:31.047Z,16.57
2018-03-23T14:28:00.980Z,20.93
2018-03-23T14:30:33.196Z,12.70
2018-03-23T14:33:03.558Z,12.70
2018-03-23T14:35:33.261Z,12.60
2018-03-23T14:38:02.825Z,11.37
2018-03-23T14:40:32.512Z,11.07
2018-03-23T14:43:02.139Z,11.23
2018-03-23T14:45:31.731Z,11.20
2018-03-23T14:48:02.194Z,11.53
2018-03-23T14:50:31.941Z,17.40
2018-03-23T14:53:01.628Z,12.37
2018-03-23T14:55:31.310Z,11.03
2018-03-23T14:58:01.699Z,12.80
2018-03-23T15:00:32.195Z,13.03
2018-03-23T15:03:01.879Z,11.53
2018-03-23T15:05:31.605Z,11.70
2018-03-23T15:08:01.335Z,12.20
2018-03-23T15:10:31.899Z,13.37
2018-03-23T15:15:42.624Z,11.97
2018-03-23T15:18:29.998Z,12.43
2018-03-23T15:20:59.689Z,12.40
2018-03-23T15:23:29.372Z,12.03
2018-03-23T15:25:59.094Z,10.20
2018-03-23T15:28:29.788Z,10.33
2018-03-23T15:31:09.027Z,10.30
2018-03-23T15:33:39.184Z,8.77
2018-03-23T15:36:08.905Z,10.30
2018-03-23T15:38:39.334Z,8.67
2018-03-23T15:41:09.406Z,9.00
2018-03-23T15:43:39.856Z,8.90
2018-03-23T15:46:09.807Z,9.40
2018-03-23T15:48:39.457Z,9.37
2018-03-23T15:51:10.096Z,9.33
2018-03-23T15:53:39.869Z,9.20
2018-03-23T15:56:10.362Z,9.60
2018-03-23T15:58:40.291Z,10.50
2018-03-23T16:01:10.048Z,11.43
2018-03-23T16:03:39.711Z,10.57
2018-03-23T16:06:09.627Z,11.37
2018-03-23T16:08:41.640Z,10.70
2018-03-23T16:11:12.076Z,11.20
2018-03-23T16:13:41.816Z,10.87
2018-03-23T16:16:11.615Z,10.87
2018-03-23T16:18:41.346Z,7.93
2018-03-23T16:21:26.236Z,7.83
2018-03-23T16:23:55.914Z,6.77
2018-03-23T16:26:25.631Z,7.43
2018-03-23T16:28:55.306Z,7.70
2018-03-23T16:31:25.056Z,7.50
2018-03-23T16:33:54.872Z,9.27
2018-03-23T16:36:25.230Z,8.67
2018-03-23T16:38:55.383Z,7.00
2018-03-23T16:41:26.027Z,8.57
2018-03-23T16:43:55.745Z,8.43
2018-03-23T16:46:26.300Z,8.47
2018-03-23T16:48:56.813Z,8.80
2018-03-23T16:51:26.545Z,9.23
2018-03-23T16:53:56.278Z,8.40
2018-03-23T16:56:26.856Z,11.00
2018-03-23T16:58:56.527Z,9.13
2018-03-23T17:01:26.197Z,9.23
2018-03-23T17:03:55.972Z,10.17
2018-03-23T17:06:27.099Z,9.23
2018-03-23T17:08:57.558Z,8.60
2018-03-23T17:11:27.370Z,9.73
2018-03-23T17:13:58.935Z,8.43
2018-03-23T17:16:29.430Z,9.13
2018-03-23T17:19:00.185Z,10.80
2018-03-23T17:24:26.862Z,11.57
2018-03-23T17:26:57.557Z,10.60
2018-03-23T17:29:28.121Z,8.13
2018-03-23T17:31:57.916Z,11.00
2018-03-23T17:34:28.617Z,12.97
2018-03-23T17:36:59.083Z,11.83
2018-03-23T17:39:28.890Z,12.23
2018-03-23T17:41:58.752Z,13.53
2018-03-23T17:44:28.435Z,11.17
2018-03-23T17:46:58.172Z,11.10
2018-03-23T17:49:27.857Z,11.37
2018-03-23T17:51:57.955Z,10.83
2018-03-23T17:57:50.949Z,10.60
2018-03-23T18:02:30.041Z,11.10
2018-03-23T18:05:05.074Z,10.57
2018-03-23T18:07:36.337Z,11.40
2018-03-23T18:10:09.082Z,11.60
2018-03-23T18:12:40.215Z,11.20
2018-03-23T18:15:09.897Z,11.80
2018-03-23T18:17:42.564Z,11.73
2018-03-23T18:20:18.723Z,11.80
2018-03-23T18:22:48.978Z,12.10
2018-03-23T18:25:20.916Z,11.90
2018-03-23T18:27:51.476Z,11.13
2018-03-23T18:30:33.537Z,11.90
2018-03-23T18:33:08.349Z,11.63
2018-03-23T18:35:39.570Z,11.57
2018-03-23T18:38:09.992Z,15.43
2018-03-23T18:40:39.739Z,15.33
2018-03-23T18:43:12.151Z,13.73
2018-03-23T18:45:41.974Z,12.47
2018-03-23T18:48:11.741Z,12.03
2018-03-23T18:50:42.155Z,12.27
2018-03-23T18:53:11.915Z,12.53
2018-03-23T18:55:41.738Z,11.93
2018-03-23T18:58:11.840Z,11.27
2018-03-23T19:00:46.665Z,11.70
2018-03-23T19:03:16.747Z,11.30
2018-03-23T19:05:46.721Z,11.23
2018-03-23T19:08:18.362Z,11.27
2018-03-23T19:10:49.117Z,11.43
2018-03-23T19:13:19.918Z,11.47
2018-03-23T19:15:49.746Z,11.33
2018-03-23T19:18:20.189Z,11.47
2018-03-23T19:20:50.488Z,12.13
2018-03-23T19:23:21.455Z,11.87
2018-03-23T19:25:51.296Z,12.60
2018-03-23T19:28:21.928Z,12.80
2018-03-23T19:30:51.735Z,15.80
2018-03-23T19:33:23.011Z,14.77
2018-03-23T19:35:53.023Z,14.63
2018-03-23T19:38:23.776Z,13.73
2018-03-23T19:40:53.896Z,13.20
2018-03-23T19:43:23.649Z,13.03
2018-03-23T19:45:53.391Z,12.60
2018-03-23T19:48:23.943Z,12.30
2018-03-23T19:50:53.829Z,12.27
2018-03-23T19:53:23.468Z,13.50
2018-03-23T19:55:53.149Z,14.77
2018-03-23T19:58:25.100Z,14.93
2018-03-23T20:00:54.924Z,14.27
2018-03-23T20:03:24.860Z,14.10
2018-03-23T20:05:55.428Z,13.83
2018-03-23T20:08:26.916Z,13.23
2018-03-23T20:10:57.792Z,12.00
2018-03-23T20:13:28.465Z,9.60
2018-03-23T20:15:58.792Z,10.37
2018-03-23T20:18:28.664Z,11.40
2018-03-23T20:21:02.587Z,16.93
2018-03-23T20:23:32.468Z,11.27
2018-03-23T20:26:02.890Z,11.30
2018-03-23T20:28:42.147Z,10.17
2018-03-23T20:31:11.909Z,11.37
2018-03-23T20:33:42.410Z,9.90
2018-03-23T20:36:12.100Z,9.77
2018-03-23T20:38:42.748Z,9.53
2018-03-23T20:41:12.396Z,10.97
2018-03-23T20:43:42.136Z,10.30
2018-03-23T20:46:12.590Z,9.53
2018-03-23T20:48:42.291Z,10.37
2018-03-23T20:51:12.854Z,10.63
2018-03-23T20:53:42.595Z,10.60
2018-03-23T20:56:13.054Z,9.80
2018-03-23T20:58:56.364Z,10.77
2018-03-23T21:01:30.766Z,10.87
2018-03-23T21:04:00.788Z,11.43
2018-03-23T21:06:31.574Z,12.67
2018-03-23T21:10:42.196Z,11.50
2018-03-23T21:13:12.696Z,10.97
2018-03-23T21:15:44.255Z,9.73
2018-03-23T21:18:14.472Z,10.30
2018-03-23T21:20:44.961Z,10.03
2018-03-23T21:23:15.427Z,10.53
2018-03-23T21:25:53.759Z,10.03
2018-03-23T21:28:24.194Z,10.27
2018-03-23T21:30:54.848Z,11.20
2018-03-23T21:33:25.391Z,10.73
2018-03-23T21:35:56.163Z,14.95
2018-03-23T21:38:26.754Z,12.13
2018-03-23T21:40:57.527Z,11.17
2018-03-23T21:43:27.911Z,12.93
2018-03-23T21:45:58.409Z,12.37
2018-03-23T21:48:28.779Z,12.77
2018-03-23T21:50:59.749Z,11.93
2018-03-23T21:53:30.264Z,18.47
2018-03-23T21:56:00.816Z,15.47
2018-03-23T21:58:31.295Z,12.93
2018-03-23T22:01:01.668Z,12.27
2018-03-23T22:03:32.076Z,11.90
2018-03-23T22:06:02.629Z,12.13
2018-03-23T22:08:33.025Z,12.70
2018-03-23T22:11:03.479Z,12.90
2018-03-23T22:13:33.995Z,12.03
2018-03-23T22:16:04.549Z,11.67
2018-03-23T22:18:34.964Z,12.20
2018-03-23T22:21:05.299Z,13.03
2018-03-23T22:23:35.740Z,13.30
2018-03-23T22:26:06.408Z,13.07
2018-03-23T22:28:36.758Z,13.73
2018-03-23T22:31:07.202Z,13.73
2018-03-23T22:33:37.730Z,15.67
2018-03-23T22:36:08.106Z,15.77
2018-03-23T22:38:39.745Z,14.63
2018-03-23T22:41:10.259Z,15.70
2018-03-23T22:43:40.784Z,23.17
2018-03-23T22:46:11.274Z,16.77
2018-03-23T22:48:41.735Z,15.17
2018-03-23T22:51:11.911Z,13.37
2018-03-23T22:53:42.251Z,12.87
2018-03-23T22:56:12.714Z,13.60
2018-03-23T22:58:42.860Z,13.80
2018-03-23T23:01:13.370Z,13.80
2018-03-23T23:03:44.068Z,14.40
2018-03-23T23:06:14.566Z,14.17
2018-03-23T23:08:45.174Z,13.23
2018-03-23T23:11:15.853Z,13.33
2018-03-23T23:13:46.282Z,13.40
2018-03-23T23:16:17.109Z,16.70
2018-03-23T23:18:47.373Z,18.27
2018-03-23T23:21:17.830Z,17.87
2018-03-23T23:23:48.260Z,16.77
2018-03-23T23:26:19.034Z,17.23
2018-03-23T23:28:50.509Z,16.67
2018-03-23T23:31:20.912Z,18.10
2018-03-23T23:33:51.393Z,17.97
2018-03-23T23:36:22.317Z,18.90
2018-03-23T23:38:52.945Z,19.17
2018-03-23T23:41:23.815Z,18.43
2018-03-23T23:44:01.967Z,17.00
2018-03-23T23:46:32.422Z,15.57
2018-03-23T23:49:02.853Z,15.33
2018-03-23T23:51:33.179Z,15.90
2018-03-23T23:54:03.829Z,14.97
2018-03-23T23:56:34.141Z,14.27
2018-03-23T23:59:04.713Z,14.70
